createdAt,value
2023-04-02T00:00:08.173Z,10.90
2023-04-02T00:05:20.595Z,10.70
2023-04-02T00:10:00.714Z,10.90
2023-04-02T00:15:00.766Z,11.50
2023-04-02T00:20:04.311Z,10.10
2023-04-02T00:25:11.205Z,10.90
2023-04-02T00:30:00.953Z,9.60
2023-04-02T00:35:01.337Z,10.80
2023-04-02T00:40:04.128Z,13.40
2023-04-02T00:45:01.679Z,11.50
2023-04-02T00:50:05.501Z,12.20
2023-04-02T00:55:07.848Z,13.90
2023-04-02T01:00:11.131Z,10.90
2023-04-02T01:05:13.169Z,14.40
2023-04-02T01:10:20.592Z,11.90
2023-04-02T01:15:10.605Z,12.40
2023-04-02T01:20:20.602Z,12.00
2023-04-02T01:25:02.065Z,13.30
2023-04-02T01:30:02.835Z,14.00
2023-04-02T01:35:00.805Z,11.10
2023-04-02T01:40:20.566Z,11.60
2023-04-02T01:45:12.613Z,12.60
2023-04-02T01:50:12.933Z,12.20
2023-04-02T01:55:01.416Z,10.90
2023-04-02T02:00:03.972Z,13.10
2023-04-02T02:05:00.906Z,11.80
2023-04-02T02:10:01.260Z,10.60
2023-04-02T02:15:01.364Z,11.80
2023-04-02T02:20:01.754Z,10.80
2023-04-02T02:25:04.787Z,10.70
2023-04-02T02:30:13.109Z,10.80
2023-04-02T02:35:11.344Z,10.80
2023-04-02T02:40:04.551Z,10.90
2023-04-02T02:45:05.966Z,13.20
2023-04-02T02:50:04.939Z,10.40
2023-04-02T02:55:03.695Z,12.70
2023-04-02T03:00:05.132Z,10.30
2023-04-02T03:05:00.915Z,11.10
2023-04-02T03:10:16.368Z,9.70
2023-04-02T03:15:15.357Z,11.30
2023-04-02T03:20:09.608Z,13.20
2023-04-02T03:25:20.570Z,12.10
2023-04-02T03:30:20.612Z,11.70
2023-04-02T03:35:15.152Z,12.50
2023-04-02T03:40:07.525Z,11.70
2023-04-02T03:45:03.962Z,11.30
2023-04-02T03:50:16.572Z,11.40
2023-04-02T03:55:08.423Z,12.30
2023-04-02T04:00:06.386Z,11.10
2023-04-02T04:05:02.706Z,10.50
2023-04-02T04:10:03.215Z,11.40
2023-04-02T04:15:11.705Z,13.30
2023-04-02T04:20:16.498Z,13.20
2023-04-02T04:25:05.568Z,11.00
2023-04-02T04:30:06.276Z,12.90
2023-04-02T04:35:06.413Z,13.20
2023-04-02T04:40:11.182Z,12.60
2023-04-02T04:45:20.575Z,12.30
2023-04-02T04:50:07.582Z,12.30
2023-04-02T04:55:01.125Z,12.00
2023-04-02T05:00:20.619Z,10.90
2023-04-02T05:05:02.556Z,10.80
2023-04-02T05:10:11.738Z,11.70
2023-04-02T05:15:11.668Z,9.90
2023-04-02T05:20:14.577Z,11.20
2023-04-02T05:25:14.179Z,10.20
2023-04-02T05:30:09.225Z,8.60
2023-04-02T05:35:01.437Z,8.80
2023-04-02T05:40:11.978Z,7.00
2023-04-02T05:45:12.725Z,6.10
2023-04-02T05:50:03.963Z,7.10
2023-04-02T05:55:05.204Z,6.40
2023-04-02T06:00:06.878Z,8.90
2023-04-02T06:05:11.122Z,6.50
2023-04-02T06:10:06.223Z,4.00
2023-04-02T06:15:00.855Z,4.80
2023-04-02T06:20:03.265Z,4.70
2023-04-02T06:25:07.833Z,8.10
2023-04-02T06:30:04.353Z,5.30
2023-04-02T06:35:00.736Z,8.20
2023-04-02T06:40:03.669Z,6.90
2023-04-02T06:45:01.190Z,6.60
2023-04-02T06:50:14.329Z,4.90
2023-04-02T06:55:14.358Z,4.80
2023-04-02T07:00:02.916Z,5.80
2023-04-02T07:05:03.616Z,6.90
2023-04-02T07:10:00.687Z,4.40
2023-04-02T07:15:00.702Z,6.80
2023-04-02T07:20:00.686Z,4.00
2023-04-02T07:25:00.723Z,5.00
2023-04-02T07:30:00.715Z,3.80
2023-04-02T07:35:01.112Z,3.80
2023-04-02T07:40:00.744Z,3.70
2023-04-02T07:45:00.750Z,4.50
2023-04-02T07:50:00.792Z,3.60
2023-04-02T07:55:00.695Z,4.00
2023-04-02T08:00:01.162Z,4.20
2023-04-02T08:05:00.706Z,3.50
2023-04-02T08:10:01.180Z,5.50
2023-04-02T08:15:01.220Z,7.00
2023-04-02T08:20:00.724Z,7.10
2023-04-02T08:25:00.759Z,5.20
2023-04-02T08:30:00.761Z,3.20
2023-04-02T08:35:00.776Z,4.50
2023-04-02T08:40:00.731Z,3.50
2023-04-02T08:45:23.662Z,2.70
2023-04-02T08:50:03.596Z,3.60
2023-04-02T08:55:01.970Z,3.00
2023-04-02T09:00:17.110Z,4.10
2023-04-02T09:05:04.780Z,3.40
2023-04-02T09:10:00.870Z,3.90
2023-04-02T09:15:20.595Z,3.70
2023-04-02T09:20:12.599Z,4.70
2023-04-02T09:25:03.279Z,4.60
2023-04-02T09:30:12.662Z,2.90
2023-04-02T09:35:15.115Z,3.40
2023-04-02T09:40:20.608Z,5.10
2023-04-02T09:45:12.293Z,4.00
2023-04-02T09:50:12.692Z,3.60
2023-04-02T09:55:13.919Z,3.20
2023-04-02T10:00:30.746Z,4.40
2023-04-02T10:05:03.692Z,4.40
2023-04-02T10:10:20.578Z,2.60
2023-04-02T10:15:02.812Z,2.60
2023-04-02T10:20:06.497Z,4.70
2023-04-02T10:25:00.749Z,2.80
2023-04-02T10:30:08.238Z,4.50
2023-04-02T10:35:07.383Z,1.90
2023-04-02T10:40:09.834Z,3.30
2023-04-02T10:45:20.579Z,2.60
2023-04-02T10:50:11.760Z,4.90
2023-04-02T10:55:04.786Z,3.20
2023-04-02T11:00:13.865Z,3.20
2023-04-02T11:05:15.195Z,3.50
2023-04-02T11:10:01.083Z,2.50
2023-04-02T11:15:01.741Z,2.30
2023-04-02T11:20:20.594Z,2.60
2023-04-02T11:25:01.837Z,5.60
2023-04-02T11:30:06.789Z,3.50
2023-04-02T11:35:12.804Z,2.30
2023-04-02T11:40:11.649Z,3.20
2023-04-02T11:45:21.111Z,3.50
2023-04-02T11:50:02.742Z,3.70
2023-04-02T11:55:04.454Z,1.80
2023-04-02T12:00:20.611Z,4.00
2023-04-02T12:05:08.675Z,3.30
2023-04-02T12:10:04.798Z,3.70
2023-04-02T12:15:00.942Z,2.50
2023-04-02T12:20:10.734Z,3.20
2023-04-02T12:25:16.240Z,3.00
2023-04-02T12:30:13.363Z,3.80
2023-04-02T12:35:02.113Z,3.20
2023-04-02T12:40:13.008Z,2.60
2023-04-02T12:45:03.213Z,2.80
2023-04-02T12:50:01.132Z,2.40
2023-04-02T12:55:01.945Z,1.80
2023-04-02T13:00:13.836Z,4.10
2023-04-02T13:05:01.040Z,3.30
2023-04-02T13:10:05.388Z,5.50
2023-04-02T13:15:03.305Z,15.10
2023-04-02T13:20:20.595Z,3.10
2023-04-02T13:25:00.666Z,2.40
2023-04-02T13:30:06.327Z,14.20
2023-04-02T13:35:00.690Z,3.60
2023-04-02T13:40:00.670Z,4.60
2023-04-02T13:45:00.765Z,2.20
2023-04-02T13:50:00.678Z,2.20
2023-04-02T13:55:01.278Z,3.40
2023-04-02T14:00:01.667Z,3.30
2023-04-02T14:05:20.516Z,2.50
2023-04-02T14:10:13.938Z,2.60
2023-04-02T14:15:17.110Z,2.30
2023-04-02T14:20:05.031Z,2.40
2023-04-02T14:25:18.220Z,4.00
2023-04-02T14:30:09.343Z,2.20
2023-04-02T14:35:01.713Z,3.70
2023-04-02T14:40:08.117Z,1.40
2023-04-02T14:45:06.831Z,2.50
2023-04-02T14:50:10.196Z,3.20
2023-04-02T14:55:04.098Z,1.90
2023-04-02T15:00:11.024Z,3.70
2023-04-02T15:05:08.737Z,3.20
2023-04-02T15:10:07.600Z,2.40
2023-04-02T15:15:10.675Z,3.10
2023-04-02T15:20:13.009Z,3.00
2023-04-02T15:25:10.649Z,2.40
2023-04-02T15:30:13.490Z,1.70
2023-04-02T15:35:16.717Z,2.10
2023-04-02T15:40:13.016Z,2.50
2023-04-02T15:45:10.729Z,2.40
2023-04-02T15:50:13.245Z,2.80
2023-04-02T15:55:12.985Z,2.50
2023-04-02T16:00:20.759Z,1.50
2023-04-02T16:05:09.977Z,2.60
2023-04-02T16:10:11.026Z,1.70
2023-04-02T16:15:13.527Z,2.30
2023-04-02T16:20:20.590Z,3.00
2023-04-02T16:25:12.323Z,2.10
2023-04-02T16:30:10.710Z,2.10
2023-04-02T16:40:11.634Z,2.70
2023-04-02T16:45:18.762Z,3.20
2023-04-02T16:50:11.179Z,2.20
2023-04-02T16:55:11.930Z,2.10
2023-04-02T17:00:19.599Z,2.70
2023-04-02T17:05:11.666Z,3.20
2023-04-02T17:10:16.891Z,3.30
2023-04-02T17:15:20.576Z,2.00
2023-04-02T17:20:00.812Z,2.80
2023-04-02T17:25:03.738Z,4.40
2023-04-02T17:30:16.408Z,3.20
2023-04-02T17:35:15.967Z,2.70
2023-04-02T17:40:20.571Z,3.90
2023-04-02T17:45:21.698Z,2.60
2023-04-02T17:50:11.619Z,7.30
2023-04-02T17:55:13.899Z,4.60
2023-04-02T18:00:16.949Z,16.50
2023-04-02T18:05:10.673Z,4.00
2023-04-02T18:10:06.269Z,3.50
2023-04-02T18:15:14.916Z,3.60
2023-04-02T18:20:06.706Z,3.00
2023-04-02T18:25:10.874Z,3.10
2023-04-02T18:30:13.604Z,3.10
2023-04-02T18:35:20.597Z,3.20
2023-04-02T18:40:04.981Z,3.90
2023-04-02T18:45:13.587Z,3.60
2023-04-02T18:50:03.922Z,4.30
2023-04-02T18:55:05.622Z,3.20
2023-04-02T19:00:14.113Z,6.40
2023-04-02T19:05:13.609Z,5.70
2023-04-02T19:10:10.595Z,4.70
2023-04-02T19:15:01.500Z,6.60
2023-04-02T19:20:13.914Z,6.70
2023-04-02T19:25:13.869Z,9.00
2023-04-02T19:30:20.590Z,8.70
2023-04-02T19:35:12.312Z,7.60
2023-04-02T19:40:08.341Z,5.20
2023-04-02T19:45:01.449Z,5.20
2023-04-02T19:50:00.719Z,6.40
2023-04-02T19:55:00.679Z,4.80
2023-04-02T20:00:01.193Z,6.30
2023-04-02T20:05:00.669Z,3.20
2023-04-02T20:10:00.735Z,4.60
2023-04-02T20:15:02.113Z,4.40
2023-04-02T20:20:00.664Z,3.50
2023-04-02T20:25:00.700Z,3.30
2023-04-02T20:30:00.818Z,4.10
2023-04-02T20:35:01.778Z,2.90
2023-04-02T20:40:00.747Z,3.70
2023-04-02T20:45:00.869Z,4.90
2023-04-02T20:50:00.697Z,4.50
2023-04-02T20:55:00.729Z,4.30
2023-04-02T21:00:01.223Z,3.70
2023-04-02T21:05:00.848Z,4.00
2023-04-02T21:10:00.710Z,4.10
2023-04-02T21:15:02.711Z,3.40
2023-04-02T21:20:00.702Z,2.60
2023-04-02T21:25:00.692Z,3.00
2023-04-02T21:30:00.708Z,4.00
2023-04-02T21:35:00.705Z,2.80
2023-04-02T21:40:00.752Z,4.70
2023-04-02T21:45:00.673Z,2.20
2023-04-02T21:50:00.690Z,2.50
2023-04-02T21:55:00.686Z,2.30
2023-04-02T22:00:03.324Z,3.30
2023-04-02T22:05:00.667Z,3.30
2023-04-02T22:10:00.700Z,2.10
2023-04-02T22:15:00.721Z,2.80
2023-04-02T22:20:00.694Z,2.30
2023-04-02T22:25:00.689Z,2.50
2023-04-02T22:30:00.677Z,2.30
2023-04-02T22:35:00.669Z,4.50
2023-04-02T22:40:00.681Z,2.20
2023-04-02T22:45:00.687Z,2.50
2023-04-02T22:50:00.693Z,2.20
2023-04-02T22:55:00.702Z,3.50
2023-04-02T23:00:01.099Z,2.50
2023-04-02T23:05:00.757Z,1.80
2023-04-02T23:10:00.769Z,4.60
2023-04-02T23:15:00.750Z,1.80
2023-04-02T23:20:00.691Z,2.40
2023-04-02T23:25:00.723Z,1.90
2023-04-02T23:30:00.696Z,3.40
2023-04-02T23:35:00.690Z,2.50
2023-04-02T23:40:00.695Z,1.80
2023-04-02T23:45:00.681Z,1.20
2023-04-02T23:50:00.773Z,5.90
2023-04-02T23:55:00.731Z,2.70
